Time;durP1;ratioP1;P1;durP2;ratioP2;P2;SDS_P1;SDS_P2;PMS_P1;PMS_P2;Temp;Humidity;BMP_temperature;BMP_pressure;BME280_temperature;BME280_humidity;BME280_pressure;Samples;Min_cycle;Max_cycle;Signal;HPM_P1;HPM_P2
2023/03/30 00:01:13;;;;;;;;;;;10.70;99.90;;;;;;6189309;23;19951;-89
2023/03/30 00:03:45;;;;;;;;;;;10.80;99.90;;;;;;6188431;23;19998;-89
2023/03/30 00:06:19;;;;;;;;;;;10.90;99.90;;;;;;6170234;23;19920;-88
2023/03/30 00:08:46;;;;;;;;;;;10.80;99.90;;;;;;6187633;23;19930;-87
2023/03/30 00:11:12;;;;;;;;;;;10.80;99.90;;;;;;6191098;23;19974;-87
2023/03/30 00:13:38;;;;;;;;;;;10.90;99.90;;;;;;6190678;23;19918;-88
2023/03/30 00:16:06;;;;;;;;;;;11.00;99.90;;;;;;6189616;23;19931;-88
2023/03/30 00:18:35;;;;;;;;;;;11.40;99.90;;;;;;6211994;23;19947;-87
2023/03/30 00:21:01;;;;;;;;;;;10.90;99.90;;;;;;6213598;23;19960;-87
2023/03/30 00:23:28;;;;;;;;;;;10.90;99.90;;;;;;6187105;23;19920;-87
2023/03/30 00:25:54;;;;;;;;;;;10.80;99.90;;;;;;6184624;23;19920;-87
2023/03/30 00:28:19;;;;;;;;;;;11.30;99.90;;;;;;6164841;23;19920;-87
2023/03/30 00:30:55;;;;;;;;;;;11.00;99.90;;;;;;6165766;23;23054;-87
2023/03/30 00:33:21;;;;;;;;;;;12.30;99.90;;;;;;6188854;23;19979;-87
2023/03/30 00:35:51;;;;;;;;;;;11.10;99.90;;;;;;6164137;23;19963;-87
2023/03/30 00:38:16;;;;;;;;;;;11.00;99.90;;;;;;6189077;23;19927;-87
2023/03/30 00:40:49;;;;;;;;;;;11.00;99.90;;;;;;6163736;23;19920;-87
2023/03/30 00:43:15;;;;;;;;;;;11.00;99.90;;;;;;6164186;23;19920;-88
2023/03/30 00:45:41;;;;;;;;;;;11.10;99.90;;;;;;6163750;23;20311;-88
2023/03/30 00:48:17;;;;;;;;;;;11.50;99.90;;;;;;6163727;23;19924;-87
2023/03/30 00:50:48;;;;;;;;;;;11.30;99.90;;;;;;6188867;23;19920;-88
2023/03/30 00:53:25;;;;;;;;;;;11.70;99.90;;;;;;6188865;23;19920;-88
2023/03/30 00:55:54;;;;;;;;;;;11.00;99.90;;;;;;6158244;23;19995;-87
2023/03/30 00:58:21;;;;;;;;;;;13.00;99.90;;;;;;6183557;23;19927;-87
2023/03/30 01:00:47;;;;;;;;;;;11.40;99.90;;;;;;6183889;23;20445;-88
2023/03/30 01:03:23;;;;;;;;;;;11.00;99.90;;;;;;6183407;23;19951;-87
2023/03/30 01:05:50;;;;;;;;;;;11.10;99.90;;;;;;6159147;23;19920;-88
2023/03/30 01:08:19;;;;;;;;;;;11.00;99.90;;;;;;6159036;23;19971;-88
2023/03/30 01:10:48;;;;;;;;;;;11.20;99.90;;;;;;6157980;23;20250;-87
2023/03/30 01:13:19;;;;;;;;;;;11.00;99.90;;;;;;6183379;23;19979;-88
2023/03/30 01:16:01;;;;;;;;;;;11.00;99.90;;;;;;6135017;23;19987;-87
2023/03/30 01:18:36;;;;;;;;;;;11.20;99.90;;;;;;6158664;23;19920;-88
2023/03/30 01:21:13;;;;;;;;;;;11.80;99.90;;;;;;6161013;23;20357;-88
2023/03/30 01:23:38;;;;;;;;;;;11.30;99.90;;;;;;6160664;23;19921;-87
2023/03/30 01:26:23;;;;;;;;;;;11.30;99.90;;;;;;6160131;23;19931;-88
2023/03/30 01:29:05;;;;;;;;;;;11.40;99.90;;;;;;6160261;23;19928;-88
2023/03/30 01:31:34;;;;;;;;;;;11.00;99.90;;;;;;6160953;23;19924;-88
2023/03/30 01:34:21;;;;;;;;;;;11.00;99.90;;;;;;6184417;23;19927;-88
2023/03/30 01:36:49;;;;;;;;;;;10.90;99.90;;;;;;6160695;23;19955;-87
2023/03/30 01:39:33;;;;;;;;;;;11.00;99.90;;;;;;6160006;23;19990;-88
2023/03/30 01:42:02;;;;;;;;;;;11.00;99.90;;;;;;6184994;23;19995;-88
2023/03/30 01:44:34;;;;;;;;;;;11.10;99.90;;;;;;6159830;23;20250;-88
2023/03/30 01:47:18;;;;;;;;;;;12.60;99.90;;;;;;6160885;23;19996;-87
2023/03/30 01:49:48;;;;;;;;;;;11.10;99.90;;;;;;6160142;23;19920;-87
2023/03/30 01:52:16;;;;;;;;;;;10.90;99.90;;;;;;6160558;23;19927;-88
2023/03/30 01:54:56;;;;;;;;;;;10.90;99.90;;;;;;6158981;23;20247;-87
2023/03/30 01:57:30;;;;;;;;;;;11.10;99.90;;;;;;6159905;23;19982;-87
2023/03/30 01:59:58;;;;;;;;;;;11.50;99.90;;;;;;6160537;23;20315;-88
2023/03/30 02:02:26;;;;;;;;;;;11.10;99.90;;;;;;6159976;23;19927;-88
2023/03/30 02:04:56;;;;;;;;;;;10.60;99.90;;;;;;6159812;23;19924;-87
2023/03/30 02:07:26;;;;;;;;;;;11.00;99.90;;;;;;6185074;23;19959;-88
2023/03/30 02:09:57;;;;;;;;;;;11.00;99.90;;;;;;6159403;23;19920;-88
2023/03/30 02:12:24;;;;;;;;;;;11.00;99.90;;;;;;6159575;23;20326;-87
2023/03/30 02:14:59;;;;;;;;;;;11.00;99.90;;;;;;6185340;23;19987;-87
2023/03/30 02:17:26;;;;;;;;;;;11.30;99.90;;;;;;6185136;23;19950;-87
2023/03/30 02:19:54;;;;;;;;;;;11.10;99.90;;;;;;6160213;23;20279;-87
2023/03/30 02:22:22;;;;;;;;;;;11.00;99.90;;;;;;6160110;23;19991;-88
2023/03/30 02:24:51;;;;;;;;;;;10.40;99.90;;;;;;6183830;23;20342;-88
2023/03/30 02:27:24;;;;;;;;;;;11.10;99.90;;;;;;6184756;23;20323;-88
2023/03/30 02:29:49;;;;;;;;;;;11.10;99.90;;;;;;6159968;23;20258;-87
2023/03/30 02:32:19;;;;;;;;;;;11.10;99.90;;;;;;6159721;23;19920;-87
2023/03/30 02:34:45;;;;;;;;;;;11.00;99.90;;;;;;6184148;23;19995;-86
2023/03/30 02:37:23;;;;;;;;;;;11.20;99.90;;;;;;6184815;23;20006;-88
2023/03/30 02:40:16;;;;;;;;;;;10.80;99.90;;;;;;6159535;23;20003;-87
2023/03/30 02:42:51;;;;;;;;;;;11.20;99.90;;;;;;6159457;23;19960;-87
2023/03/30 02:45:23;;;;;;;;;;;11.10;99.90;;;;;;6184871;23;20262;-88
2023/03/30 02:48:01;;;;;;;;;;;11.00;99.90;;;;;;6184864;23;20019;-88
2023/03/30 02:50:30;;;;;;;;;;;11.00;99.90;;;;;;6184137;23;19952;-87
2023/03/30 02:53:09;;;;;;;;;;;11.60;99.90;;;;;;6184448;23;19924;-87
2023/03/30 02:56:02;;;;;;;;;;;11.10;99.90;;;;;;6158691;23;20269;-87
2023/03/30 02:58:50;;;;;;;;;;;11.10;99.90;;;;;;6171713;23;19979;-87
2023/03/30 03:01:18;;;;;;;;;;;11.20;99.90;;;;;;6184553;23;20342;-89
2023/03/30 03:03:46;;;;;;;;;;;10.60;99.90;;;;;;6158971;23;19924;-89
2023/03/30 03:06:13;;;;;;;;;;;11.20;99.90;;;;;;6185213;23;19920;-89
2023/03/30 03:08:52;;;;;;;;;;;11.10;99.90;;;;;;6160935;23;19924;-89
2023/03/30 03:11:17;;;;;;;;;;;11.80;99.90;;;;;;6184762;23;20330;-88
2023/03/30 03:13:43;;;;;;;;;;;11.50;99.90;;;;;;6159744;23;19994;-88
2023/03/30 03:16:18;;;;;;;;;;;11.20;99.90;;;;;;6185123;23;19920;-89
2023/03/30 03:18:44;;;;;;;;;;;11.50;99.90;;;;;;6159611;23;19931;-89
2023/03/30 03:21:11;;;;;;;;;;;11.50;99.90;;;;;;6159743;23;19920;-88
2023/03/30 03:23:36;;;;;;;;;;;11.40;99.90;;;;;;6159586;23;19928;-88
2023/03/30 03:26:03;;;;;;;;;;;11.60;99.90;;;;;;6158721;23;19920;-88
2023/03/30 03:28:29;;;;;;;;;;;11.30;99.90;;;;;;6159236;23;19920;-87
2023/03/30 03:30:55;;;;;;;;;;;11.30;99.90;;;;;;6159604;23;19927;-89
2023/03/30 03:33:21;;;;;;;;;;;11.20;99.90;;;;;;6158611;23;19931;-89
2023/03/30 03:35:52;;;;;;;;;;;11.20;99.90;;;;;;6158736;23;19920;-88
2023/03/30 03:38:21;;;;;;;;;;;11.10;99.90;;;;;;6159801;23;20350;-89
2023/03/30 03:40:51;;;;;;;;;;;11.30;99.90;;;;;;6183867;23;19920;-88
2023/03/30 03:43:16;;;;;;;;;;;11.30;99.90;;;;;;6184004;23;19924;-87
2023/03/30 03:45:44;;;;;;;;;;;11.10;99.90;;;;;;6185888;23;20004;-88
2023/03/30 03:48:10;;;;;;;;;;;11.10;99.90;;;;;;6186606;23;19928;-89
2023/03/30 03:50:35;;;;;;;;;;;11.10;99.90;;;;;;6159461;23;19920;-88
2023/03/30 03:53:01;;;;;;;;;;;11.20;99.90;;;;;;6159476;23;19931;-89
2023/03/30 03:55:28;;;;;;;;;;;11.20;99.90;;;;;;6158203;23;19975;-88
2023/03/30 03:57:53;;;;;;;;;;;11.30;99.90;;;;;;6158944;23;20245;-88
2023/03/30 04:00:19;;;;;;;;;;;11.90;99.90;;;;;;6159031;23;19987;-88
2023/03/30 04:02:45;;;;;;;;;;;11.30;99.90;;;;;;6134805;23;19920;-87
2023/03/30 04:05:10;;;;;;;;;;;11.40;99.90;;;;;;6158697;23;19927;-88
2023/03/30 04:07:38;;;;;;;;;;;11.90;99.90;;;;;;6159337;23;19998;-88
2023/03/30 04:10:07;;;;;;;;;;;11.70;99.90;;;;;;6183028;23;20398;-89
2023/03/30 04:12:33;;;;;;;;;;;11.40;99.90;;;;;;6183809;23;19924;-88
2023/03/30 04:14:58;;;;;;;;;;;11.40;99.90;;;;;;6185300;23;19970;-89
2023/03/30 04:17:24;;;;;;;;;;;11.30;99.90;;;;;;6152190;23;19960;-89
2023/03/30 04:19:52;;;;;;;;;;;11.50;99.90;;;;;;6185647;23;19960;-88
2023/03/30 04:22:18;;;;;;;;;;;11.50;99.90;;;;;;6210157;23;19944;-88
2023/03/30 04:24:44;;;;;;;;;;;11.30;99.90;;;;;;6210055;23;19908;-89
2023/03/30 04:27:15;;;;;;;;;;;11.30;99.90;;;;;;6183797;23;19936;-90
2023/03/30 04:29:43;;;;;;;;;;;11.30;99.90;;;;;;6211753;23;19935;-89
2023/03/30 04:32:11;;;;;;;;;;;11.20;99.90;;;;;;6208349;23;19908;-91
2023/03/30 04:34:41;;;;;;;;;;;11.20;99.90;;;;;;6183497;23;19992;-88
2023/03/30 04:37:10;;;;;;;;;;;11.20;99.90;;;;;;6207917;23;19920;-88
2023/03/30 04:39:36;;;;;;;;;;;10.60;99.90;;;;;;6161113;23;20282;-88
2023/03/30 04:42:03;;;;;;;;;;;11.20;99.90;;;;;;6159547;23;19956;-89
2023/03/30 04:44:29;;;;;;;;;;;10.00;99.90;;;;;;6159155;23;19920;-89
2023/03/30 04:46:55;;;;;;;;;;;11.50;99.90;;;;;;6158933;23;20070;-88
2023/03/30 04:49:23;;;;;;;;;;;11.30;99.90;;;;;;6159091;23;19921;-88
2023/03/30 04:51:49;;;;;;;;;;;11.10;99.90;;;;;;6183884;23;19958;-88
2023/03/30 04:54:15;;;;;;;;;;;11.30;99.90;;;;;;6159083;23;19924;-88
2023/03/30 04:56:40;;;;;;;;;;;11.70;99.90;;;;;;6160991;23;20278;-88
2023/03/30 04:59:06;;;;;;;;;;;13.10;99.90;;;;;;6160688;23;19920;-88
2023/03/30 05:01:32;;;;;;;;;;;11.20;99.90;;;;;;6160540;23;20382;-88
2023/03/30 05:03:58;;;;;;;;;;;11.20;99.90;;;;;;6160201;23;19920;-89
2023/03/30 05:06:26;;;;;;;;;;;11.20;99.90;;;;;;6161085;23;19927;-89
2023/03/30 05:08:52;;;;;;;;;;;11.30;99.90;;;;;;6160541;23;20331;-89
2023/03/30 05:11:20;;;;;;;;;;;11.50;99.90;;;;;;6185635;23;19968;-88
2023/03/30 05:13:46;;;;;;;;;;;12.40;99.90;;;;;;6135596;23;19920;-88
2023/03/30 05:16:22;;;;;;;;;;;11.40;99.90;;;;;;6161048;23;19920;-87
2023/03/30 05:18:51;;;;;;;;;;;11.30;99.90;;;;;;6163717;23;19991;-88
2023/03/30 05:21:16;;;;;;;;;;;11.30;99.90;;;;;;6136309;23;19928;-89
2023/03/30 05:23:45;;;;;;;;;;;11.60;99.90;;;;;;6159994;23;19967;-88
2023/03/30 05:26:10;;;;;;;;;;;11.40;99.90;;;;;;6185183;23;19920;-89
2023/03/30 05:28:36;;;;;;;;;;;11.50;99.90;;;;;;6160215;23;19927;-89
2023/03/30 05:31:04;;;;;;;;;;;11.50;99.90;;;;;;6159208;23;19927;-89
2023/03/30 05:47:04;;;;;;;;;;;;;;;;;;;;;
2023/03/30 05:49:46;;;;;;;;;;;;;;;;;;;;;
2023/03/30 05:56:42;;;;;;;;;;;;;;;;;;;;;
2023/03/30 06:11:48;;;;;;;;;;;;;;;;;;;;;
2023/03/30 06:24:21;;;;;;;;;;;;;;;;;;;;;
2023/03/30 06:27:12;;;;;;;;;;;9.80;99.90;;;;;;6100159;23;19995;-96
2023/03/30 06:33:27;;;;;;;;;;;;;;;;;;;;;
2023/03/30 06:44:04;;;;;;;;;;;;;;;;;;;;;
2023/03/30 06:52:53;;;;;;;;;;;12.00;99.90;;;;;;6099892;23;20000;-94
2023/03/30 06:55:35;;;;;;;;;;;10.90;99.90;;;;;;6076403;23;19921;-93
2023/03/30 06:58:52;;;;;;;;;;;;;;;;;;;;;
2023/03/30 07:01:23;;;;;;;;;;;12.10;99.90;;;;;;6137921;23;19921;-92
2023/03/30 07:03:57;;;;;;;;;;;12.10;99.90;;;;;;6135588;23;19924;-93
2023/03/30 07:09:47;;;;;;;;;;;11.70;99.90;;;;;;6152947;23;19920;-92
2023/03/30 07:12:32;;;;;;;;;;;12.90;99.90;;;;;;6143454;23;19978;-93
2023/03/30 07:15:12;;;;;;;;;;;11.10;99.90;;;;;;6155432;23;19931;-92
2023/03/30 07:18:07;;;;;;;;;;;10.30;99.90;;;;;;6153516;23;20303;-93
2023/03/30 07:21:13;;;;;;;;;;;13.00;99.90;;;;;;6115017;23;19931;-92
2023/03/30 07:24:00;;;;;;;;;;;11.70;99.90;;;;;;6074118;23;19921;-92
2023/03/30 07:26:31;;;;;;;;;;;10.20;99.90;;;;;;6074998;23;20400;-92
2023/03/30 07:29:06;;;;;;;;;;;13.40;99.90;;;;;;6083950;23;20001;-92
2023/03/30 07:34:57;;;;;;;;;;;10.50;99.90;;;;;;6009016;23;19921;-91
2023/03/30 07:37:51;;;;;;;;;;;12.50;99.90;;;;;;6106890;23;20006;-92
2023/03/30 07:40:20;;;;;;;;;;;11.90;99.90;;;;;;6126175;23;19920;-90
2023/03/30 07:42:46;;;;;;;;;;;10.90;99.90;;;;;;6164558;23;19991;-89
2023/03/30 07:45:21;;;;;;;;;;;11.90;99.90;;;;;;6137801;23;19920;-94
2023/03/30 07:47:50;;;;;;;;;;;10.60;99.90;;;;;;6136396;23;19927;-87
2023/03/30 07:50:15;;;;;;;;;;;12.00;99.90;;;;;;6159536;23;19920;-89
2023/03/30 07:52:41;;;;;;;;;;;12.00;99.90;;;;;;6134809;23;19931;-86
2023/03/30 08:02:55;;;;;;;;;;;11.30;99.90;;;;;;6128266;23;19931;-91
2023/03/30 08:05:26;;;;;;;;;;;12.00;99.90;;;;;;6080172;23;19927;-90
2023/03/30 08:08:20;;;;;;;;;;;11.50;99.90;;;;;;6159874;23;20370;-90
2023/03/30 08:11:08;;;;;;;;;;;;;;;;;;;;;
2023/03/30 08:13:52;;;;;;;;;;;11.70;99.90;;;;;;6183839;23;20003;-92
2023/03/30 08:20:00;;;;;;;;;;;11.90;99.90;;;;;;6091234;23;19920;-91
2023/03/30 08:22:35;;;;;;;;;;;10.10;99.90;;;;;;6161739;23;19924;-92
2023/03/30 08:25:04;;;;;;;;;;;11.60;99.90;;;;;;6185034;23;19924;-91
2023/03/30 08:27:47;;;;;;;;;;;12.50;99.90;;;;;;6185802;23;19924;-88
2023/03/30 08:33:07;;;;;;;;;;;11.40;99.90;;;;;;6201547;23;19980;-91
2023/03/30 08:35:38;;;;;;;;;;;11.10;99.90;;;;;;6171838;23;19920;-88
2023/03/30 08:38:11;;;;;;;;;;;11.80;99.90;;;;;;6146328;23;19928;-89
2023/03/30 08:44:14;;;;;;;;;;;;;;;;;;;;;
2023/03/30 08:46:51;;;;;;;;;;;10.70;99.90;;;;;;6102449;23;20410;-92
2023/03/30 08:49:32;;;;;;;;;;;11.70;99.90;;;;;;6160063;23;19920;-91
2023/03/30 08:52:40;;;;;;;;;;;11.50;99.90;;;;;;6179369;23;20232;-91
2023/03/30 08:55:47;;;;;;;;;;;11.60;99.90;;;;;;6185678;23;19920;-92
2023/03/30 09:01:44;;;;;;;;;;;;;;;;;;;;;
2023/03/30 09:10:50;;;;;;;;;;;12.00;99.90;;;;;;6069098;23;19921;-91
2023/03/30 09:31:10;;;;;;;;;;;14.80;99.90;;;;;;5980633;23;20046;-91
2023/03/30 09:34:07;;;;;;;;;;;;;;;;;;;;;
2023/03/30 09:37:01;;;;;;;;;;;;;;;;;;;;;
2023/03/30 09:40:05;;;;;;;;;;;;;;;;;;;;;
2023/03/30 09:42:51;;;;;;;;;;;12.80;99.90;;;;;;6184964;23;19920;-91
2023/03/30 09:45:20;;;;;;;;;;;12.70;99.90;;;;;;6160225;23;19991;-89
2023/03/30 09:48:06;;;;;;;;;;;10.80;99.90;;;;;;6159751;23;19967;-90
2023/03/30 09:51:18;;;;;;;;;;;13.10;99.90;;;;;;6159904;23;20409;-90
2023/03/30 09:53:39;;;;;;;;;;;12.80;99.90;;;;;;6178917;23;19960;-90
2023/03/30 09:56:16;;;;;;;;;;;14.00;99.90;;;;;;6161125;23;19979;-89
2023/03/30 09:58:45;;;;;;;;;;;12.60;99.90;;;;;;6164416;23;20339;-90
2023/03/30 10:01:41;;;;;;;;;;;12.30;99.90;;;;;;6165200;23;19927;-88
2023/03/30 10:04:11;;;;;;;;;;;12.40;99.90;;;;;;6163865;23;19920;-90
2023/03/30 10:09:33;;;;;;;;;;;12.20;99.90;;;;;;6128386;23;19920;-89
2023/03/30 10:12:42;;;;;;;;;;;12.40;99.90;;;;;;6198317;23;19920;-89
2023/03/30 10:15:16;;;;;;;;;;;13.10;99.90;;;;;;6165816;23;19931;-89
2023/03/30 10:17:46;;;;;;;;;;;12.50;99.90;;;;;;6164276;23;20327;-89
2023/03/30 10:20:35;;;;;;;;;;;12.20;99.90;;;;;;6164104;23;19944;-92
2023/03/30 10:23:10;;;;;;;;;;;12.60;99.90;;;;;;6152575;23;20314;-89
2023/03/30 10:25:42;;;;;;;;;;;12.40;99.90;;;;;;6188313;23;19920;-89
2023/03/30 10:28:15;;;;;;;;;;;12.40;99.90;;;;;;6163338;23;19958;-91
2023/03/30 10:30:51;;;;;;;;;;;12.60;99.90;;;;;;6164312;23;19998;-91
2023/03/30 10:33:22;;;;;;;;;;;12.70;99.90;;;;;;6164363;23;19943;-89
2023/03/30 10:35:52;;;;;;;;;;;12.70;99.90;;;;;;6188498;23;20033;-88
2023/03/30 10:38:22;;;;;;;;;;;12.40;99.90;;;;;;6164060;23;19946;-90
2023/03/30 10:40:50;;;;;;;;;;;12.30;99.90;;;;;;6162653;23;19963;-89
2023/03/30 10:43:29;;;;;;;;;;;12.70;99.90;;;;;;6163687;23;19947;-89
2023/03/30 10:46:14;;;;;;;;;;;11.60;99.90;;;;;;6164280;23;19924;-89
2023/03/30 10:48:49;;;;;;;;;;;11.50;99.90;;;;;;6163581;23;19958;-89
2023/03/30 10:51:26;;;;;;;;;;;12.00;99.90;;;;;;6163630;23;20323;-88
2023/03/30 10:53:57;;;;;;;;;;;12.20;99.90;;;;;;6163559;23;19928;-88
2023/03/30 10:56:51;;;;;;;;;;;12.30;99.90;;;;;;6163028;23;19977;-88
2023/03/30 10:59:24;;;;;;;;;;;12.20;99.90;;;;;;6122479;23;19920;-88
2023/03/30 11:02:00;;;;;;;;;;;12.00;99.90;;;;;;6163490;23;19920;-89
2023/03/30 11:04:37;;;;;;;;;;;12.50;99.90;;;;;;6163034;23;20386;-89
2023/03/30 11:07:17;;;;;;;;;;;12.30;99.90;;;;;;6163872;23;19927;-90
2023/03/30 11:09:46;;;;;;;;;;;12.60;99.90;;;;;;6162827;23;20010;-88
2023/03/30 11:12:25;;;;;;;;;;;12.30;99.90;;;;;;6163928;23;19919;-89
2023/03/30 11:15:03;;;;;;;;;;;12.30;99.90;;;;;;6164221;23;19924;-88
2023/03/30 11:17:45;;;;;;;;;;;;;;;;;;;;;
2023/03/30 11:20:30;;;;;;;;;;;12.40;99.90;;;;;;6190059;23;19926;-89
2023/03/30 11:22:58;;;;;;;;;;;12.70;99.90;;;;;;6168104;23;19924;-89
2023/03/30 11:25:41;;;;;;;;;;;12.70;99.90;;;;;;6166455;23;19927;-90
2023/03/30 11:28:22;;;;;;;;;;;13.40;99.90;;;;;;6165588;23;19920;-88
2023/03/30 11:31:01;;;;;;;;;;;12.60;99.90;;;;;;6164983;23;19920;-87
2023/03/30 11:33:40;;;;;;;;;;;12.70;99.90;;;;;;6164452;23;19943;-89
2023/03/30 11:36:23;;;;;;;;;;;;;;;;;;;;;
2023/03/30 11:39:24;;;;;;;;;;;13.00;99.90;;;;;;6190525;23;19920;-89
2023/03/30 11:42:16;;;;;;;;;;;14.20;99.90;;;;;;6148853;23;19920;-90
2023/03/30 11:44:41;;;;;;;;;;;12.80;99.90;;;;;;6196278;23;19924;-90
2023/03/30 11:47:28;;;;;;;;;;;12.40;99.90;;;;;;6164717;23;19995;-89
2023/03/30 11:49:56;;;;;;;;;;;13.30;99.90;;;;;;6164126;23;19924;-89
2023/03/30 11:52:34;;;;;;;;;;;13.40;99.90;;;;;;6163624;23;19920;-89
2023/03/30 11:55:12;;;;;;;;;;;13.40;99.90;;;;;;6163186;23;19977;-90
2023/03/30 11:58:02;;;;;;;;;;;13.50;99.90;;;;;;6158570;23;20323;-91
2023/03/30 12:00:33;;;;;;;;;;;13.30;99.90;;;;;;6157609;23;19921;-91
2023/03/30 12:03:56;;;;;;;;;;;;;;;;;;;;;
2023/03/30 12:09:31;;;;;;;;;;;13.50;99.90;;;;;;6061977;23;19992;-90
2023/03/30 12:12:35;;;;;;;;;;;13.70;99.90;;;;;;6145906;23;19928;-88
2023/03/30 12:15:11;;;;;;;;;;;14.10;99.90;;;;;;6093645;23;19925;-91
2023/03/30 12:17:40;;;;;;;;;;;13.70;99.90;;;;;;6134497;23;19920;-89
2023/03/30 12:20:09;;;;;;;;;;;14.00;99.90;;;;;;6158156;23;19926;-90
2023/03/30 12:23:01;;;;;;;;;;;12.30;99.90;;;;;;6159598;23;19925;-91
2023/03/30 12:25:55;;;;;;;;;;;14.40;99.90;;;;;;6165143;23;19919;-90
2023/03/30 12:28:42;;;;;;;;;;;14.30;99.90;;;;;;6186999;23;19931;-88
2023/03/30 12:31:11;;;;;;;;;;;14.90;99.90;;;;;;6210762;23;19908;-90
2023/03/30 12:33:47;;;;;;;;;;;14.70;99.90;;;;;;6179998;23;19927;-89
2023/03/30 12:36:33;;;;;;;;;;;14.60;99.90;;;;;;6178489;23;19920;-90
2023/03/30 12:39:20;;;;;;;;;;;14.90;99.90;;;;;;6190672;23;19951;-89
2023/03/30 12:41:47;;;;;;;;;;;15.20;99.90;;;;;;6190850;23;19926;-90
2023/03/30 12:44:33;;;;;;;;;;;14.80;99.90;;;;;;6168654;23;20014;-89
2023/03/30 12:47:19;;;;;;;;;;;15.10;99.90;;;;;;6162261;23;19927;-89
2023/03/30 12:49:51;;;;;;;;;;;14.50;99.90;;;;;;6158736;23;19920;-90
2023/03/30 12:52:33;;;;;;;;;;;14.40;99.90;;;;;;6158696;23;19920;-88
2023/03/30 12:55:23;;;;;;;;;;;14.50;99.90;;;;;;6182553;23;19920;-88
2023/03/30 12:57:49;;;;;;;;;;;14.90;99.90;;;;;;6157382;23;19971;-89
2023/03/30 13:00:35;;;;;;;;;;;15.00;99.90;;;;;;6158349;23;19924;-88
2023/03/30 13:03:00;;;;;;;;;;;14.40;99.90;;;;;;6158379;23;19920;-88
2023/03/30 13:05:32;;;;;;;;;;;14.40;99.90;;;;;;6157858;23;19973;-88
2023/03/30 13:11:22;;;;;;;;;;;13.10;99.90;;;;;;6138108;23;19921;-90
2023/03/30 13:13:58;;;;;;;;;;;14.40;99.90;;;;;;6158053;23;19920;-88
2023/03/30 13:16:42;;;;;;;;;;;14.80;99.90;;;;;;6158804;23;19942;-89
2023/03/30 13:19:28;;;;;;;;;;;16.70;99.90;;;;;;6159951;23;19928;-89
2023/03/30 13:22:16;;;;;;;;;;;15.60;99.90;;;;;;6161045;23;19947;-89
2023/03/30 13:24:51;;;;;;;;;;;14.30;99.90;;;;;;6183914;23;19951;-90
2023/03/30 13:27:28;;;;;;;;;;;14.40;99.90;;;;;;6159968;23;19921;-92
2023/03/30 13:30:06;;;;;;;;;;;14.90;99.90;;;;;;6184623;23;19920;-91
2023/03/30 13:32:44;;;;;;;;;;;14.60;99.90;;;;;;6160413;23;19924;-89
2023/03/30 13:35:15;;;;;;;;;;;15.00;99.90;;;;;;6184154;23;19920;-88
2023/03/30 13:37:57;;;;;;;;;;;14.70;99.90;;;;;;6159996;23;19924;-90
2023/03/30 13:40:38;;;;;;;;;;;;;;;;;;;;;
2023/03/30 13:43:09;;;;;;;;;;;14.70;99.90;;;;;;6184018;23;19920;-89
2023/03/30 13:45:41;;;;;;;;;;;14.20;99.90;;;;;;6160916;23;19925;-88
2023/03/30 13:48:13;;;;;;;;;;;14.10;99.90;;;;;;6159775;23;20064;-90
2023/03/30 13:50:55;;;;;;;;;;;14.00;99.90;;;;;;6184218;23;19946;-89
2023/03/30 13:53:28;;;;;;;;;;;15.90;99.90;;;;;;6159880;23;19920;-91
2023/03/30 13:56:12;;;;;;;;;;;15.80;99.90;;;;;;6185793;23;19927;-89
2023/03/30 13:58:42;;;;;;;;;;;14.00;99.90;;;;;;6163874;23;20627;-88
2023/03/30 14:01:19;;;;;;;;;;;13.90;99.90;;;;;;6164865;23;20323;-89
2023/03/30 14:03:48;;;;;;;;;;;14.40;99.90;;;;;;6167405;23;19924;-88
2023/03/30 14:06:15;;;;;;;;;;;13.80;99.90;;;;;;6192463;23;20339;-89
2023/03/30 14:08:43;;;;;;;;;;;13.80;99.90;;;;;;6188946;23;20195;-88
2023/03/30 14:11:19;;;;;;;;;;;13.80;99.90;;;;;;6189060;23;19924;-89
2023/03/30 14:13:47;;;;;;;;;;;12.40;99.90;;;;;;6162770;23;19959;-90
2023/03/30 14:16:17;;;;;;;;;;;14.00;99.90;;;;;;6163687;23;19974;-90
2023/03/30 14:19:03;;;;;;;;;;;14.60;99.90;;;;;;6163849;23;19924;-90
2023/03/30 14:21:38;;;;;;;;;;;15.80;99.90;;;;;;6164805;23;19920;-91
2023/03/30 14:24:06;;;;;;;;;;;13.50;99.90;;;;;;6164143;23;19927;-88
2023/03/30 14:26:53;;;;;;;;;;;13.60;99.90;;;;;;6188971;23;19970;-90
2023/03/30 14:29:22;;;;;;;;;;;12.90;99.90;;;;;;6160528;23;19921;-90
2023/03/30 14:31:56;;;;;;;;;;;13.80;99.90;;;;;;6139495;23;20302;-91
2023/03/30 14:34:30;;;;;;;;;;;13.70;99.90;;;;;;6162964;23;19920;-89
2023/03/30 14:37:19;;;;;;;;;;;13.80;99.90;;;;;;6164209;23;19994;-88
2023/03/30 14:39:49;;;;;;;;;;;14.10;99.90;;;;;;6155509;23;19920;-88
2023/03/30 14:42:18;;;;;;;;;;;12.10;99.90;;;;;;6163832;23;19974;-89
2023/03/30 14:44:56;;;;;;;;;;;14.20;99.90;;;;;;6167309;23;19924;-90
2023/03/30 14:47:30;;;;;;;;;;;14.40;99.90;;;;;;6164913;23;19951;-90
2023/03/30 14:50:01;;;;;;;;;;;13.80;99.90;;;;;;6164080;23;19927;-90
2023/03/30 14:52:33;;;;;;;;;;;11.40;99.90;;;;;;6163506;23;19939;-88
2023/03/30 14:54:59;;;;;;;;;;;12.30;99.90;;;;;;6162798;23;19919;-86
2023/03/30 14:57:25;;;;;;;;;;;13.90;99.90;;;;;;6158090;23;19924;-89
2023/03/30 15:00:12;;;;;;;;;;;13.60;99.90;;;;;;6161063;23;19967;-89
2023/03/30 15:02:46;;;;;;;;;;;13.70;99.90;;;;;;6159396;23;19987;-88
2023/03/30 15:05:16;;;;;;;;;;;14.40;99.90;;;;;;6182877;23;19924;-88
2023/03/30 15:07:45;;;;;;;;;;;12.00;99.90;;;;;;6159068;23;19920;-87
2023/03/30 15:10:21;;;;;;;;;;;13.70;99.90;;;;;;6182439;23;19924;-88
2023/03/30 15:12:55;;;;;;;;;;;13.60;99.90;;;;;;6158111;23;20305;-88
2023/03/30 15:15:26;;;;;;;;;;;11.60;99.90;;;;;;6158897;23;20262;-89
2023/03/30 15:17:56;;;;;;;;;;;13.80;99.90;;;;;;6158905;23;19974;-87
2023/03/30 15:20:24;;;;;;;;;;;13.50;99.90;;;;;;6158604;23;19924;-89
2023/03/30 15:22:53;;;;;;;;;;;13.40;99.90;;;;;;6159064;23;20251;-88
2023/03/30 15:25:20;;;;;;;;;;;13.50;99.90;;;;;;6139507;23;19947;-88
2023/03/30 15:28:09;;;;;;;;;;;13.60;99.90;;;;;;6164572;23;19920;-87
2023/03/30 15:30:41;;;;;;;;;;;13.40;99.90;;;;;;6153339;23;20353;-88
2023/03/30 15:33:38;;;;;;;;;;;13.30;99.90;;;;;;6187451;23;19920;-88
2023/03/30 15:36:41;;;;;;;;;;;11.80;99.90;;;;;;6160042;23;19920;-91
2023/03/30 15:39:32;;;;;;;;;;;12.80;99.90;;;;;;6184976;23;19920;-90
2023/03/30 15:42:08;;;;;;;;;;;12.10;99.90;;;;;;6163722;23;20256;-88
2023/03/30 15:44:35;;;;;;;;;;;11.90;99.90;;;;;;6166862;23;19921;-88
2023/03/30 15:47:01;;;;;;;;;;;13.80;99.90;;;;;;6159268;23;19920;-87
2023/03/30 15:49:31;;;;;;;;;;;13.50;99.90;;;;;;6183617;23;19932;-87
2023/03/30 15:52:00;;;;;;;;;;;13.40;99.90;;;;;;6158869;23;19920;-88
2023/03/30 15:54:29;;;;;;;;;;;13.30;99.90;;;;;;6182080;23;19964;-89
2023/03/30 15:57:11;;;;;;;;;;;13.70;99.90;;;;;;6183436;23;19926;-88
2023/03/30 15:59:52;;;;;;;;;;;13.80;99.90;;;;;;6158635;23;19924;-89
2023/03/30 16:02:36;;;;;;;;;;;13.50;99.90;;;;;;6186355;23;20224;-88
2023/03/30 16:05:03;;;;;;;;;;;13.50;99.90;;;;;;6157762;23;20365;-88
2023/03/30 16:07:30;;;;;;;;;;;13.70;99.90;;;;;;6158380;23;19951;-89
2023/03/30 16:09:55;;;;;;;;;;;14.00;99.90;;;;;;6157666;23;19920;-88
2023/03/30 16:12:26;;;;;;;;;;;13.50;99.90;;;;;;6158875;23;19924;-88
2023/03/30 16:14:55;;;;;;;;;;;13.50;99.90;;;;;;6157839;23;20231;-88
2023/03/30 16:17:34;;;;;;;;;;;11.40;99.90;;;;;;6158412;23;19927;-90
2023/03/30 16:20:08;;;;;;;;;;;13.70;99.90;;;;;;6159055;23;19920;-89
2023/03/30 16:22:44;;;;;;;;;;;11.90;99.90;;;;;;6158708;23;20013;-90
2023/03/30 16:25:10;;;;;;;;;;;13.60;99.90;;;;;;6170243;23;19935;-90
2023/03/30 16:27:38;;;;;;;;;;;13.20;99.90;;;;;;6186189;23;19908;-91
2023/03/30 16:30:16;;;;;;;;;;;13.90;99.90;;;;;;6160292;23;19908;-89
2023/03/30 16:32:44;;;;;;;;;;;13.60;99.90;;;;;;6183132;23;19920;-89
2023/03/30 16:35:12;;;;;;;;;;;13.00;99.90;;;;;;6183503;23;20437;-88
2023/03/30 16:37:45;;;;;;;;;;;12.90;99.90;;;;;;6186047;23;19920;-88
2023/03/30 16:40:15;;;;;;;;;;;13.00;99.90;;;;;;6161229;23;20005;-89
2023/03/30 16:42:43;;;;;;;;;;;13.30;99.90;;;;;;6185878;23;19951;-89
2023/03/30 16:45:09;;;;;;;;;;;13.20;99.90;;;;;;6158902;23;19924;-87
2023/03/30 16:47:36;;;;;;;;;;;13.00;99.90;;;;;;6183598;23;19920;-87
2023/03/30 16:50:29;;;;;;;;;;;13.30;99.90;;;;;;6183886;23;19920;-89
2023/03/30 16:52:57;;;;;;;;;;;12.80;99.90;;;;;;6137115;23;19920;-88
2023/03/30 16:55:30;;;;;;;;;;;12.90;99.90;;;;;;6159712;23;19970;-88
2023/03/30 16:57:56;;;;;;;;;;;12.90;99.90;;;;;;6159657;23;19924;-88
2023/03/30 17:00:31;;;;;;;;;;;10.50;99.90;;;;;;6160273;23;19925;-89
2023/03/30 17:03:03;;;;;;;;;;;12.70;99.90;;;;;;6185226;23;19927;-91
2023/03/30 17:05:34;;;;;;;;;;;12.60;99.90;;;;;;6160477;23;19928;-87
2023/03/30 17:08:14;;;;;;;;;;;12.40;99.90;;;;;;6135142;23;19921;-89
2023/03/30 17:10:42;;;;;;;;;;;11.40;99.90;;;;;;6183746;23;19920;-88
2023/03/30 17:13:15;;;;;;;;;;;12.40;99.90;;;;;;6159801;23;20016;-89
2023/03/30 17:15:41;;;;;;;;;;;12.40;99.90;;;;;;6135569;23;19932;-89
2023/03/30 17:18:15;;;;;;;;;;;12.10;99.90;;;;;;6160012;23;19924;-90